createdAt,value
2023-06-12T00:00:27.204Z,101058.95
2023-06-12T00:05:50.122Z,101054.45
2023-06-12T00:10:53.034Z,101052.03
2023-06-12T00:15:55.885Z,101046.13
2023-06-12T00:20:58.997Z,101047.55
2023-06-12T00:26:01.922Z,101045.33
2023-06-12T00:31:04.803Z,101046.77
2023-06-12T00:36:07.674Z,101045.04
2023-06-12T00:41:10.511Z,101043.94
2023-06-12T00:46:14.149Z,101048.23
2023-06-12T00:51:18.461Z,101045.88
2023-06-12T00:56:21.662Z,101050.00
2023-06-12T01:01:26.799Z,101049.55
2023-06-12T01:06:56.784Z,101052.38
2023-06-12T01:12:02.095Z,101053.95
2023-06-12T01:17:05.383Z,101052.55
2023-06-12T01:22:10.561Z,101051.14
2023-06-12T01:27:28.722Z,101051.27
2023-06-12T01:32:32.643Z,101055.30
2023-06-12T01:37:43.890Z,101057.25
2023-06-12T01:42:47.873Z,101060.73
2023-06-12T01:47:50.830Z,101062.13
2023-06-12T01:52:53.780Z,101060.21
2023-06-12T01:57:57.138Z,101058.44
2023-06-12T02:03:02.837Z,101057.19
2023-06-12T02:08:05.881Z,101050.33
2023-06-12T02:13:08.697Z,101046.41
2023-06-12T02:18:11.828Z,101047.58
2023-06-12T02:23:14.562Z,101042.25
2023-06-12T02:28:17.407Z,101040.23
2023-06-12T02:33:20.184Z,101044.83
2023-06-12T02:38:22.980Z,101045.63
2023-06-12T02:43:25.837Z,101043.19
2023-06-12T02:48:29.222Z,101048.44
2023-06-12T02:53:32.722Z,101049.20
2023-06-12T02:58:35.584Z,101056.06
2023-06-12T03:03:41.167Z,101064.19
2023-06-12T03:08:45.145Z,101067.27
2023-06-12T03:13:48.141Z,101073.82
2023-06-12T03:18:51.111Z,101076.85
2023-06-12T03:23:54.143Z,101083.33
2023-06-12T03:28:56.998Z,101088.23
2023-06-12T03:34:00.114Z,101080.71
2023-06-12T03:39:04.381Z,101085.17
2023-06-12T03:44:07.254Z,101085.43
2023-06-12T03:49:10.077Z,101083.58
2023-06-12T03:54:13.143Z,101087.81
2023-06-12T03:59:16.511Z,101084.96
2023-06-12T04:04:19.479Z,101086.88
2023-06-12T04:09:23.745Z,101092.27
2023-06-12T04:14:26.571Z,101090.73
2023-06-12T04:19:29.365Z,101093.98
2023-06-12T04:24:34.695Z,101092.65
2023-06-12T04:29:41.498Z,101092.11
2023-06-12T04:34:46.475Z,101101.02
2023-06-12T04:39:49.355Z,101100.41
2023-06-12T04:44:52.174Z,101105.95
2023-06-12T04:49:59.115Z,101109.72
2023-06-12T04:55:02.691Z,101114.02
2023-06-12T05:00:07.348Z,101113.83
2023-06-12T05:05:11.763Z,101116.83
2023-06-12T05:10:16.319Z,101116.16
2023-06-12T05:15:19.140Z,101114.02
2023-06-12T05:20:22.277Z,101109.34
2023-06-12T05:25:25.202Z,101101.67
2023-06-12T05:30:27.917Z,101105.90
2023-06-12T05:35:32.808Z,101106.10
2023-06-12T05:40:35.699Z,101102.70
2023-06-12T05:45:38.478Z,101105.58
2023-06-12T05:50:41.926Z,101109.78
2023-06-12T05:55:44.926Z,101110.27
2023-06-12T06:00:50.858Z,101111.33
2023-06-12T06:05:53.739Z,101110.80
2023-06-12T06:10:56.676Z,101113.04
2023-06-12T06:15:59.867Z,101108.91
2023-06-12T06:21:03.085Z,101105.55
2023-06-12T06:26:06.965Z,101104.70
2023-06-12T06:31:11.036Z,101102.98
2023-06-12T06:36:15.061Z,101105.66
2023-06-12T06:41:20.747Z,101100.63
2023-06-12T06:46:25.909Z,101098.16
2023-06-12T06:51:29.783Z,101097.70
2023-06-12T06:56:32.616Z,101103.89
2023-06-12T07:01:36.495Z,101101.09
2023-06-12T07:06:39.505Z,101101.04
2023-06-12T07:11:42.554Z,101098.33
2023-06-12T07:16:46.424Z,101094.63
2023-06-12T07:21:55.389Z,101094.66
2023-06-12T07:27:05.490Z,101094.86
2023-06-12T07:32:08.591Z,101088.98
2023-06-12T07:37:13.978Z,101092.54
2023-06-12T07:42:17.001Z,101093.66
2023-06-12T07:47:19.778Z,101091.45
2023-06-12T07:52:24.141Z,101088.53
2023-06-12T07:57:27.001Z,101090.27
2023-06-12T08:02:33.052Z,101082.82
2023-06-12T08:07:36.349Z,101075.86
2023-06-12T08:12:39.695Z,101072.89
2023-06-12T08:17:46.384Z,101066.51
2023-06-12T08:22:50.466Z,101064.61
2023-06-12T08:27:55.993Z,101067.38
2023-06-12T08:32:58.938Z,101063.05
2023-06-12T08:38:02.922Z,101061.61
2023-06-12T08:43:06.002Z,101064.98
2023-06-12T08:48:09.638Z,101057.25
2023-06-12T08:53:13.747Z,101052.55
2023-06-12T08:58:17.049Z,101047.86
2023-06-12T09:03:21.061Z,101042.33
2023-06-12T09:08:24.814Z,101041.52
2023-06-12T09:13:43.024Z,101040.27
2023-06-12T09:18:53.206Z,101033.05
2023-06-12T09:24:08.304Z,101033.80
2023-06-12T09:29:16.253Z,101034.71
2023-06-12T09:34:27.701Z,101030.11
2023-06-12T09:39:31.670Z,101025.38
2023-06-12T09:44:34.671Z,101028.00
2023-06-12T09:55:06.940Z,101021.73
2023-06-12T10:00:14.817Z,101015.39
2023-06-12T10:05:29.187Z,101006.59
2023-06-12T10:10:32.702Z,101000.03
2023-06-12T10:15:38.054Z,100996.59
2023-06-12T10:20:42.546Z,100990.08
2023-06-12T10:25:47.329Z,100986.80
2023-06-12T10:31:28.678Z,100988.62
2023-06-12T10:36:41.972Z,100987.70
2023-06-12T10:41:57.206Z,100981.83
2023-06-12T10:47:03.265Z,100978.98
2023-06-12T10:52:20.503Z,100971.29
2023-06-12T10:57:29.415Z,100968.66
2023-06-12T11:02:32.399Z,100959.09
2023-06-12T11:07:35.572Z,100959.41
2023-06-12T11:12:52.671Z,100954.41
2023-06-12T11:17:56.585Z,100946.43
2023-06-12T11:23:02.246Z,100933.31
2023-06-12T11:28:06.818Z,100919.70
2023-06-12T11:33:13.620Z,100918.77
2023-06-12T11:43:31.813Z,100903.86
2023-06-12T11:53:41.186Z,100894.02
2023-06-12T11:58:46.916Z,100894.60
2023-06-12T12:03:55.525Z,100891.39
2023-06-12T12:09:00.574Z,100880.15
2023-06-12T12:14:07.658Z,100884.92
2023-06-12T12:19:27.773Z,100885.16
2023-06-12T12:24:37.920Z,100882.22
2023-06-12T12:29:54.995Z,100868.98
2023-06-12T12:35:02.645Z,100864.45
2023-06-12T12:40:10.643Z,100862.55
2023-06-12T12:45:16.729Z,100853.42
2023-06-12T12:50:24.971Z,100849.13
2023-06-12T12:55:33.581Z,100843.86
2023-06-12T13:00:38.265Z,100840.20
2023-06-12T13:05:41.241Z,100833.34
2023-06-12T13:10:44.509Z,100835.45
2023-06-12T13:15:48.621Z,100831.05
2023-06-12T13:20:51.909Z,100826.06
2023-06-12T13:25:54.869Z,100818.40
2023-06-12T13:30:57.706Z,100813.66
2023-06-12T13:36:03.198Z,100812.31
2023-06-12T13:41:06.360Z,100810.84
2023-06-12T13:46:11.008Z,100809.73
2023-06-12T13:51:14.284Z,100799.48
2023-06-12T13:56:17.172Z,100797.86
2023-06-12T14:01:19.965Z,100794.02
2023-06-12T14:06:29.154Z,100796.56
2023-06-12T14:11:32.296Z,100795.58
2023-06-12T14:16:36.455Z,100795.40
2023-06-12T14:21:39.350Z,100797.89
2023-06-12T14:26:42.807Z,100798.90
2023-06-12T14:31:45.757Z,100793.17
2023-06-12T14:36:48.607Z,100790.88
2023-06-12T14:41:51.391Z,100784.98
2023-06-12T14:46:54.233Z,100787.33
2023-06-12T14:51:57.037Z,100789.63
2023-06-12T14:56:59.901Z,100784.23
2023-06-12T15:02:03.075Z,100776.59
2023-06-12T15:07:06.242Z,100774.92
2023-06-12T15:12:09.229Z,100777.05
2023-06-12T15:17:12.642Z,100767.85
2023-06-12T15:22:15.495Z,100764.50
2023-06-12T15:27:18.390Z,100760.70
2023-06-12T15:32:21.357Z,100765.27
2023-06-12T15:37:24.163Z,100759.23
2023-06-12T15:42:27.095Z,100759.56
2023-06-12T15:47:30.086Z,100761.56
2023-06-12T15:52:32.937Z,100759.45
2023-06-12T15:57:35.784Z,100762.14
2023-06-12T16:02:38.786Z,100762.92
2023-06-12T16:07:41.782Z,100761.92
2023-06-12T16:12:46.506Z,100757.67
2023-06-12T16:17:50.836Z,100754.08
2023-06-12T16:22:53.867Z,100753.81
2023-06-12T16:28:01.731Z,100750.23
2023-06-12T16:33:07.113Z,100748.62
2023-06-12T16:38:11.098Z,100750.01
2023-06-12T16:43:14.017Z,100740.05
2023-06-12T16:48:16.952Z,100739.81
2023-06-12T16:53:19.770Z,100740.52
2023-06-12T16:58:22.573Z,100737.39
2023-06-12T17:03:25.529Z,100734.36
2023-06-12T17:08:29.275Z,100733.55
2023-06-12T17:13:33.653Z,100732.97
2023-06-12T17:18:36.453Z,100729.82
2023-06-12T17:23:39.426Z,100730.83
2023-06-12T17:28:42.338Z,100728.77
2023-06-12T17:33:45.186Z,100726.30
2023-06-12T17:38:49.777Z,100716.20
2023-06-12T17:43:53.087Z,100715.37
2023-06-12T17:48:56.193Z,100713.42
2023-06-12T17:53:59.098Z,100717.61
2023-06-12T17:59:02.518Z,100722.42
2023-06-12T18:04:06.774Z,100724.23
2023-06-12T18:09:09.923Z,100719.48
2023-06-12T18:14:13.031Z,100724.55
2023-06-12T18:19:16.050Z,100722.87
2023-06-12T18:24:19.162Z,100719.92
2023-06-12T18:29:22.639Z,100721.71
2023-06-12T18:34:25.583Z,100722.41
2023-06-12T18:39:28.497Z,100723.13
2023-06-12T18:44:31.324Z,100722.57
2023-06-12T18:49:34.120Z,100722.76
2023-06-12T18:54:37.849Z,100732.44
2023-06-12T18:59:41.398Z,100736.66
2023-06-12T19:04:44.266Z,100737.75
2023-06-12T19:09:49.827Z,100745.52
2023-06-12T19:14:52.637Z,100744.98
2023-06-12T19:19:55.475Z,100755.05
2023-06-12T19:24:58.460Z,100774.70
2023-06-12T19:30:01.338Z,100778.44
2023-06-12T19:35:04.584Z,100771.73
2023-06-12T19:40:09.336Z,100775.23
2023-06-12T19:45:15.032Z,100775.31
2023-06-12T19:50:22.168Z,100790.20
2023-06-12T19:55:27.020Z,100803.48
2023-06-12T20:00:29.876Z,100828.11
2023-06-12T20:05:33.049Z,100838.96
2023-06-12T20:10:35.969Z,100842.60
2023-06-12T20:15:39.362Z,100837.86
2023-06-12T20:20:43.274Z,100839.15
2023-06-12T20:25:46.388Z,100840.86
2023-06-12T20:30:49.745Z,100858.73
2023-06-12T20:35:52.534Z,100871.85
2023-06-12T20:40:56.143Z,100872.27
2023-06-12T20:45:58.995Z,100872.01
2023-06-12T20:51:03.365Z,100853.48
2023-06-12T20:56:06.461Z,100845.73
2023-06-12T21:01:09.566Z,100851.50
2023-06-12T21:06:14.039Z,100856.02
2023-06-12T21:11:31.484Z,100856.60
2023-06-12T21:16:35.189Z,100858.80
2023-06-12T21:21:38.210Z,100856.11
2023-06-12T21:26:41.482Z,100857.35
2023-06-12T21:31:44.218Z,100866.67
2023-06-12T21:36:47.494Z,100866.78
2023-06-12T21:42:30.459Z,100864.45
2023-06-12T21:47:33.594Z,100865.48
2023-06-12T21:52:36.987Z,100859.77
2023-06-12T21:57:39.990Z,100856.72
2023-06-12T22:02:44.776Z,100858.77
2023-06-12T22:07:48.079Z,100856.31
2023-06-12T22:12:52.494Z,100855.75
2023-06-12T22:17:56.657Z,100853.93
2023-06-12T22:23:00.127Z,100855.22
2023-06-12T22:28:03.305Z,100853.73
2023-06-12T22:33:07.426Z,100847.86
2023-06-12T22:38:14.054Z,100840.06
2023-06-12T22:43:17.361Z,100835.48
2023-06-12T22:48:22.818Z,100834.08
2023-06-12T22:53:25.961Z,100826.50
2023-06-12T22:58:28.991Z,100830.83
2023-06-12T23:03:31.962Z,100823.77
2023-06-12T23:08:34.967Z,100823.27
2023-06-12T23:13:37.953Z,100815.89
2023-06-12T23:18:41.554Z,100813.75
2023-06-12T23:23:45.633Z,100806.68
2023-06-12T23:28:50.660Z,100801.59
2023-06-12T23:33:53.958Z,100800.45
2023-06-12T23:38:57.099Z,100789.86
2023-06-12T23:44:00.043Z,100789.88
2023-06-12T23:49:03.099Z,100775.55
2023-06-12T23:54:06.278Z,100778.80
2023-06-12T23:59:09.816Z,100775.76
